createdAt,value
2018-12-25T00:02:16.881Z,3.50
2018-12-25T00:04:49.407Z,3.73
2018-12-25T00:07:20.379Z,4.23
2018-12-25T00:09:50.419Z,4.00
2018-12-25T00:12:20.059Z,3.90
2018-12-25T00:14:49.487Z,4.07
2018-12-25T00:17:19.880Z,3.90
2018-12-25T00:20:00.342Z,3.83
2018-12-25T00:22:32.528Z,3.87
2018-12-25T00:25:01.792Z,4.30
2018-12-25T00:27:32.265Z,4.77
2018-12-25T00:30:02.014Z,4.33
2018-12-25T00:32:31.970Z,4.27
2018-12-25T00:35:01.562Z,4.43
2018-12-25T00:37:32.257Z,4.57
2018-12-25T00:40:04.939Z,4.77
2018-12-25T00:42:34.170Z,4.40
2018-12-25T00:45:04.614Z,4.50
2018-12-25T00:47:36.333Z,4.40
2018-12-25T00:50:06.048Z,4.60
2018-12-25T00:52:36.569Z,4.47
2018-12-25T00:55:06.174Z,4.60
2018-12-25T00:57:39.379Z,4.30
2018-12-25T01:00:09.526Z,4.47
2018-12-25T01:02:39.963Z,4.03
2018-12-25T01:05:15.454Z,3.87
2018-12-25T01:07:47.917Z,3.87
2018-12-25T01:10:17.512Z,3.70
2018-12-25T01:12:47.031Z,4.03
2018-12-25T01:15:20.567Z,4.00
2018-12-25T01:17:56.412Z,4.17
2018-12-25T01:20:28.061Z,4.10
2018-12-25T01:22:58.238Z,4.40
2018-12-25T01:25:27.740Z,3.90
2018-12-25T01:28:01.420Z,3.83
2018-12-25T01:30:33.022Z,4.10
2018-12-25T01:33:04.848Z,4.07
2018-12-25T01:35:37.589Z,4.07
2018-12-25T01:38:06.862Z,4.93
2018-12-25T01:40:36.924Z,5.57
2018-12-25T01:43:06.719Z,5.67
2018-12-25T01:45:44.422Z,6.13
2018-12-25T01:48:18.547Z,6.00
2018-12-25T01:50:48.729Z,6.73
2018-12-25T01:53:19.052Z,6.80
2018-12-25T01:55:53.899Z,7.03
2018-12-25T01:58:26.491Z,6.97
2018-12-25T02:01:00.090Z,7.00
2018-12-25T02:03:30.168Z,6.80
2018-12-25T02:05:59.932Z,7.00
2018-12-25T02:08:29.761Z,7.40
2018-12-25T02:11:03.869Z,7.17
2018-12-25T02:13:36.860Z,6.60
2018-12-25T02:16:12.032Z,6.50
2018-12-25T02:18:45.037Z,7.00
2018-12-25T02:21:15.392Z,6.90
2018-12-25T02:23:44.988Z,7.17
2018-12-25T02:26:14.202Z,6.57
2018-12-25T02:28:44.342Z,7.03
2018-12-25T02:31:15.463Z,6.80
2018-12-25T02:33:45.873Z,6.83
2018-12-25T02:36:16.061Z,5.67
2018-12-25T02:38:50.108Z,6.10
2018-12-25T02:41:23.005Z,7.53
2018-12-25T02:43:57.879Z,7.60
2018-12-25T02:46:28.192Z,8.10
2018-12-25T02:48:57.764Z,7.00
2018-12-25T02:51:28.802Z,6.40
2018-12-25T02:53:59.547Z,7.50
2018-12-25T02:56:31.207Z,6.90
2018-12-25T02:59:04.079Z,5.90
2018-12-25T03:01:37.363Z,5.90
2018-12-25T03:04:07.707Z,7.37
2018-12-25T03:06:39.307Z,7.47
2018-12-25T03:09:10.425Z,7.47
2018-12-25T03:11:40.429Z,6.43
2018-12-25T03:14:10.098Z,5.67
2018-12-25T03:16:40.246Z,5.30
2018-12-25T03:19:10.354Z,5.27
2018-12-25T03:21:39.886Z,6.03
2018-12-25T03:24:13.258Z,5.63
2018-12-25T03:26:45.948Z,5.57
2018-12-25T03:29:15.795Z,5.63
2018-12-25T03:31:45.598Z,5.30
2018-12-25T03:34:19.098Z,4.90
2018-12-25T03:36:48.616Z,5.13
2018-12-25T03:39:18.416Z,5.07
2018-12-25T03:41:49.215Z,5.30
2018-12-25T03:44:28.825Z,5.17
2018-12-25T03:46:58.662Z,5.60
2018-12-25T03:49:28.164Z,5.17
2018-12-25T03:52:00.425Z,5.00
2018-12-25T03:54:30.060Z,6.33
2018-12-25T03:57:02.177Z,5.70
2018-12-25T03:59:31.670Z,5.07
2018-12-25T04:02:01.824Z,5.40
2018-12-25T04:04:35.346Z,4.90
2018-12-25T04:07:09.227Z,5.50
2018-12-25T04:09:40.739Z,5.57
2018-12-25T04:12:10.121Z,5.20
2018-12-25T04:14:39.606Z,5.33
2018-12-25T04:17:16.569Z,5.50
2018-12-25T04:19:50.572Z,5.13
2018-12-25T04:22:19.836Z,5.17
2018-12-25T04:24:50.169Z,5.07
2018-12-25T04:27:22.517Z,5.37
2018-12-25T04:29:55.616Z,5.23
2018-12-25T04:32:25.947Z,5.07
2018-12-25T04:34:56.353Z,5.20
2018-12-25T04:37:26.158Z,4.93
2018-12-25T04:39:56.053Z,5.03
2018-12-25T04:42:25.888Z,5.40
2018-12-25T04:44:55.226Z,5.53
2018-12-25T04:47:27.943Z,5.10
2018-12-25T04:49:57.454Z,5.30
2018-12-25T04:52:30.233Z,5.40
2018-12-25T04:55:00.998Z,5.57
2018-12-25T04:57:32.640Z,4.87
2018-12-25T05:00:03.132Z,5.60
2018-12-25T05:02:37.582Z,5.80
2018-12-25T05:05:08.182Z,5.70
2018-12-25T05:07:39.175Z,6.47
2018-12-25T05:10:11.646Z,6.87
2018-12-25T05:12:42.276Z,6.23
2018-12-25T05:15:15.023Z,6.57
2018-12-25T05:17:47.062Z,5.90
2018-12-25T05:20:21.146Z,5.40
2018-12-25T05:22:53.441Z,5.83
2018-12-25T05:25:25.436Z,5.90
2018-12-25T05:27:58.975Z,6.90
2018-12-25T05:30:31.409Z,5.67
2018-12-25T05:33:01.555Z,5.63
2018-12-25T05:35:31.238Z,6.13
2018-12-25T05:38:05.687Z,5.70
2018-12-25T05:40:35.760Z,6.10
2018-12-25T05:43:05.282Z,6.57
2018-12-25T05:45:36.088Z,6.10
2018-12-25T05:48:07.905Z,6.13
2018-12-25T05:50:37.645Z,6.03
2018-12-25T05:53:08.834Z,6.10
2018-12-25T05:55:47.423Z,6.30
2018-12-25T05:58:18.462Z,5.70
2018-12-25T06:00:48.258Z,6.00
2018-12-25T06:03:18.043Z,5.93
2018-12-25T06:05:48.090Z,6.73
2018-12-25T06:08:19.564Z,5.63
2018-12-25T06:10:50.398Z,6.57
2018-12-25T06:13:22.955Z,6.17
2018-12-25T06:15:52.211Z,6.87
2018-12-25T06:18:24.505Z,6.50
2018-12-25T06:20:55.186Z,6.10
2018-12-25T06:23:26.891Z,6.70
2018-12-25T06:25:57.928Z,6.17
2018-12-25T06:28:31.634Z,6.90
2018-12-25T06:31:02.921Z,6.60
2018-12-25T06:33:35.041Z,6.50
2018-12-25T06:36:04.603Z,7.00
2018-12-25T06:38:36.149Z,7.63
2018-12-25T06:41:07.621Z,7.50
2018-12-25T06:43:37.210Z,7.53
2018-12-25T06:46:09.797Z,7.93
2018-12-25T06:48:39.103Z,8.10
2018-12-25T06:51:13.490Z,7.70
2018-12-25T06:53:43.819Z,7.60
2018-12-25T06:56:17.438Z,8.33
2018-12-25T06:58:51.888Z,8.70
2018-12-25T07:01:25.585Z,7.93
2018-12-25T07:03:57.090Z,8.20
2018-12-25T07:06:26.456Z,8.10
2018-12-25T07:08:57.325Z,8.37
2018-12-25T07:11:28.660Z,7.77
2018-12-25T07:13:59.022Z,7.47
2018-12-25T07:16:29.342Z,7.70
2018-12-25T07:18:59.180Z,8.10
2018-12-25T07:21:28.706Z,8.43
2018-12-25T07:24:11.023Z,7.67
2018-12-25T07:26:45.159Z,7.93
2018-12-25T07:29:50.438Z,8.07
2018-12-25T07:32:58.537Z,7.93
2018-12-25T07:35:32.011Z,8.03
2018-12-25T07:38:04.269Z,8.17
2018-12-25T07:40:36.918Z,7.93
2018-12-25T07:43:08.558Z,8.20
2018-12-25T07:45:38.894Z,8.10
2018-12-25T07:48:16.402Z,8.67
2018-12-25T07:51:01.238Z,9.03
2018-12-25T07:53:54.213Z,8.40
2018-12-25T07:56:26.604Z,8.40
2018-12-25T07:58:56.689Z,8.53
2018-12-25T08:02:03.590Z,10.17
2018-12-25T08:04:39.908Z,8.67
2018-12-25T08:07:12.452Z,10.17
2018-12-25T08:09:43.588Z,10.10
2018-12-25T08:12:19.037Z,9.40
2018-12-25T08:14:50.564Z,9.60
2018-12-25T08:17:20.182Z,9.70
2018-12-25T08:19:49.889Z,8.37
2018-12-25T08:22:19.970Z,8.10
2018-12-25T08:24:52.056Z,9.67
2018-12-25T08:27:31.614Z,8.73
2018-12-25T08:30:08.179Z,9.13
2018-12-25T08:32:40.572Z,9.37
2018-12-25T08:35:13.764Z,9.73
2018-12-25T08:38:05.112Z,9.47
2018-12-25T08:40:40.739Z,8.40
2018-12-25T08:43:19.061Z,9.40
2018-12-25T08:45:49.000Z,8.40
2018-12-25T08:48:30.849Z,8.77
2018-12-25T08:51:01.845Z,9.47
2018-12-25T08:53:34.989Z,8.03
2018-12-25T08:56:05.886Z,8.80
2018-12-25T08:58:40.473Z,8.33
2018-12-25T09:01:18.029Z,8.60
2018-12-25T09:03:58.565Z,8.83
2018-12-25T09:06:30.216Z,9.27
2018-12-25T09:09:03.404Z,9.43
2018-12-25T09:11:37.209Z,15.00
2018-12-25T09:14:11.282Z,13.17
2018-12-25T09:16:45.633Z,10.93
2018-12-25T09:19:32.070Z,10.50
2018-12-25T09:22:13.910Z,8.80
2018-12-25T09:24:52.422Z,8.57
2018-12-25T09:27:27.275Z,9.00
2018-12-25T09:30:09.013Z,10.13
2018-12-25T09:32:39.382Z,12.33
2018-12-25T09:35:10.206Z,10.23
2018-12-25T09:37:41.136Z,9.30
2018-12-25T09:40:11.049Z,10.20
2018-12-25T09:42:41.348Z,9.27
2018-12-25T09:45:14.479Z,9.50
2018-12-25T09:47:47.867Z,8.87
2018-12-25T09:50:24.387Z,10.00
2018-12-25T09:52:56.706Z,9.87
2018-12-25T09:55:36.309Z,9.40
2018-12-25T09:58:07.613Z,8.97
2018-12-25T10:00:38.343Z,9.00
2018-12-25T10:03:07.597Z,9.57
2018-12-25T10:05:38.217Z,8.10
2018-12-25T10:08:25.796Z,9.20
2018-12-25T10:11:00.607Z,9.60
2018-12-25T10:13:31.526Z,11.30
2018-12-25T10:16:04.104Z,10.47
2018-12-25T10:18:36.385Z,10.43
2018-12-25T10:21:08.511Z,9.97
2018-12-25T10:23:37.983Z,9.40
2018-12-25T10:26:08.954Z,9.30
2018-12-25T10:28:40.010Z,9.17
2018-12-25T10:31:09.478Z,9.77
2018-12-25T10:33:40.268Z,9.27
2018-12-25T10:36:13.990Z,8.87
2018-12-25T10:38:49.095Z,10.57
2018-12-25T10:41:20.183Z,11.03
2018-12-25T10:43:59.192Z,14.93
2018-12-25T10:46:28.832Z,11.63
2018-12-25T10:48:59.979Z,10.20
2018-12-25T10:51:29.867Z,10.70
2018-12-25T10:53:59.142Z,10.77
2018-12-25T10:56:28.712Z,9.57
2018-12-25T10:58:58.248Z,9.60
2018-12-25T11:01:29.976Z,9.27
2018-12-25T11:03:59.590Z,9.17
2018-12-25T11:06:28.830Z,9.20
2018-12-25T11:08:58.088Z,9.17
2018-12-25T11:11:28.137Z,10.40
2018-12-25T11:13:57.427Z,8.93
2018-12-25T11:16:27.323Z,8.60
2018-12-25T11:18:57.317Z,8.37
2018-12-25T11:21:26.863Z,7.97
2018-12-25T11:23:56.901Z,8.73
2018-12-25T11:26:26.148Z,8.60
2018-12-25T11:28:55.605Z,9.93
2018-12-25T11:31:24.815Z,9.10
2018-12-25T11:33:54.067Z,8.63
2018-12-25T11:36:23.309Z,8.00
2018-12-25T11:38:52.576Z,8.00
2018-12-25T11:41:22.120Z,10.53
2018-12-25T11:43:52.171Z,9.53
2018-12-25T11:46:21.426Z,9.77
2018-12-25T11:48:51.555Z,9.03
2018-12-25T11:51:22.303Z,9.13
2018-12-25T11:53:51.538Z,8.50
2018-12-25T11:56:20.809Z,8.37
2018-12-25T11:58:50.038Z,7.93
2018-12-25T12:01:19.292Z,8.80
2018-12-25T12:03:48.522Z,8.77
2018-12-25T12:06:19.889Z,7.90
2018-12-25T12:08:50.394Z,8.87
2018-12-25T12:11:20.458Z,9.40
2018-12-25T12:13:49.986Z,10.33
2018-12-25T12:16:23.071Z,9.33
2018-12-25T12:18:52.569Z,8.13
2018-12-25T12:21:23.253Z,11.53
2018-12-25T12:23:57.379Z,10.40
2018-12-25T12:26:29.395Z,10.43
2018-12-25T12:28:59.040Z,9.90
2018-12-25T12:31:29.911Z,8.73
2018-12-25T12:33:59.990Z,8.53
2018-12-25T12:36:30.807Z,8.70
2018-12-25T12:39:00.661Z,10.73
2018-12-25T12:41:30.738Z,9.07
2018-12-25T12:43:59.965Z,9.23
2018-12-25T12:46:29.917Z,8.60
2018-12-25T12:48:59.412Z,9.27
2018-12-25T12:51:29.323Z,9.17
2018-12-25T12:54:00.057Z,9.50
2018-12-25T12:56:30.121Z,8.93
2018-12-25T12:58:59.905Z,8.93
2018-12-25T13:01:30.559Z,9.50
2018-12-25T13:04:05.809Z,9.67
2018-12-25T13:06:35.548Z,10.13
2018-12-25T13:09:14.398Z,9.50
2018-12-25T13:11:45.121Z,9.83
2018-12-25T13:14:14.616Z,10.47
2018-12-25T13:16:44.143Z,10.07
2018-12-25T13:19:14.932Z,10.23
2018-12-25T13:21:44.995Z,11.13
2018-12-25T13:24:17.223Z,10.37
2018-12-25T13:26:47.543Z,10.53
2018-12-25T13:29:19.129Z,9.97
2018-12-25T13:31:49.849Z,10.27
2018-12-25T13:34:20.482Z,10.77
2018-12-25T13:36:53.662Z,10.47
2018-12-25T13:39:24.733Z,10.33
2018-12-25T13:41:55.147Z,8.97
2018-12-25T13:44:25.020Z,10.00
2018-12-25T13:46:55.726Z,9.70
2018-12-25T13:49:26.421Z,10.17
2018-12-25T13:51:56.992Z,9.40
2018-12-25T13:54:26.356Z,9.63
2018-12-25T13:56:55.650Z,8.93
2018-12-25T13:59:26.067Z,9.50
2018-12-25T14:01:56.167Z,9.27
2018-12-25T14:04:28.567Z,9.43
2018-12-25T14:06:59.303Z,10.03
2018-12-25T14:09:36.819Z,9.83
2018-12-25T14:12:08.853Z,10.17
2018-12-25T14:14:39.455Z,10.00
2018-12-25T14:17:12.348Z,9.77
2018-12-25T14:19:44.297Z,9.37
2018-12-25T14:22:13.554Z,9.57
2018-12-25T14:24:44.862Z,9.80
2018-12-25T14:27:15.008Z,10.30
2018-12-25T14:30:16.427Z,11.53
2018-12-25T14:32:50.855Z,10.17
2018-12-25T14:35:22.348Z,10.30
2018-12-25T14:37:53.809Z,10.57
2018-12-25T14:40:24.658Z,10.63
2018-12-25T14:43:00.009Z,11.00
2018-12-25T14:45:35.856Z,11.27
2018-12-25T14:48:07.987Z,10.73
2018-12-25T14:50:48.535Z,11.33
2018-12-25T14:53:20.822Z,9.80
2018-12-25T14:55:57.645Z,10.90
2018-12-25T14:58:29.038Z,10.17
2018-12-25T15:01:03.002Z,11.50
2018-12-25T15:03:34.460Z,11.33
2018-12-25T15:06:04.949Z,11.23
2018-12-25T15:08:37.712Z,12.33
2018-12-25T15:11:07.474Z,12.03
2018-12-25T15:13:37.073Z,10.83
2018-12-25T15:16:07.490Z,11.33
2018-12-25T15:18:38.253Z,11.27
2018-12-25T15:21:10.970Z,11.83
2018-12-25T15:23:42.600Z,10.80
2018-12-25T15:26:18.153Z,11.57
2018-12-25T15:28:47.578Z,11.90
2018-12-25T15:31:33.964Z,11.47
2018-12-25T15:34:06.539Z,11.53
2018-12-25T15:36:36.730Z,11.07
2018-12-25T15:39:12.511Z,12.07
2018-12-25T15:41:44.350Z,11.40
2018-12-25T15:44:22.885Z,11.60
2018-12-25T15:46:59.791Z,12.37
2018-12-25T15:49:29.602Z,13.70
2018-12-25T15:51:58.972Z,13.43
2018-12-25T15:54:31.950Z,14.47
2018-12-25T15:57:07.440Z,13.80
2018-12-25T15:59:39.418Z,13.47
2018-12-25T16:02:12.289Z,13.90
2018-12-25T16:04:45.986Z,12.10
2018-12-25T16:07:36.788Z,12.00
2018-12-25T16:10:11.231Z,11.93
2018-12-25T16:12:40.507Z,12.33
2018-12-25T16:15:21.584Z,12.67
2018-12-25T16:17:51.683Z,24.83
2018-12-25T16:20:21.722Z,15.03
2018-12-25T16:22:52.473Z,14.33
2018-12-25T16:25:21.834Z,12.97
2018-12-25T16:27:51.119Z,12.43
2018-12-25T16:30:20.367Z,12.93
2018-12-25T16:32:51.154Z,13.63
2018-12-25T16:35:20.630Z,13.67
2018-12-25T16:37:52.144Z,13.63
2018-12-25T16:40:22.639Z,12.80
2018-12-25T16:43:04.625Z,13.03
2018-12-25T16:45:33.963Z,12.80
2018-12-25T16:48:03.493Z,12.77
2018-12-25T16:50:32.716Z,13.40
2018-12-25T16:53:02.025Z,12.83
2018-12-25T16:55:31.287Z,12.70
2018-12-25T16:58:00.534Z,12.10
2018-12-25T17:00:29.806Z,12.87
2018-12-25T17:02:59.025Z,11.97
2018-12-25T17:05:28.845Z,12.20
2018-12-25T17:07:58.075Z,12.20
2018-12-25T17:10:27.375Z,12.03
2018-12-25T17:12:57.433Z,12.50
2018-12-25T17:15:26.704Z,16.00
2018-12-25T17:17:56.199Z,19.63
2018-12-25T17:20:25.477Z,13.33
2018-12-25T17:22:55.478Z,15.37
2018-12-25T17:25:28.515Z,13.00
2018-12-25T17:27:58.100Z,14.97
2018-12-25T17:30:30.000Z,12.97
2018-12-25T17:33:25.541Z,13.17
2018-12-25T17:36:04.489Z,13.23
2018-12-25T17:38:34.067Z,13.50
2018-12-25T17:41:05.688Z,13.80
2018-12-25T17:43:40.733Z,15.23
2018-12-25T17:46:11.712Z,14.50
2018-12-25T17:48:41.582Z,14.20
2018-12-25T17:51:28.652Z,14.30
2018-12-25T17:54:10.682Z,12.87
2018-12-25T17:56:38.181Z,14.40
2018-12-25T17:59:14.564Z,15.57
2018-12-25T18:01:43.846Z,14.13
2018-12-25T18:04:16.142Z,12.87
2018-12-25T18:06:48.522Z,12.93
2018-12-25T18:09:18.263Z,11.53
2018-12-25T18:11:48.566Z,12.37
2018-12-25T18:14:22.203Z,11.87
2018-12-25T18:16:59.315Z,13.40
2018-12-25T18:19:36.570Z,12.77
2018-12-25T18:22:05.929Z,13.30
2018-12-25T18:24:37.179Z,12.23
2018-12-25T18:27:08.962Z,11.60
2018-12-25T18:29:38.557Z,16.87
2018-12-25T18:32:07.818Z,14.57
2018-12-25T18:34:37.067Z,13.47
2018-12-25T18:37:06.466Z,12.57
2018-12-25T18:39:36.479Z,11.83
2018-12-25T18:42:05.814Z,12.10
2018-12-25T18:44:35.130Z,11.90
2018-12-25T18:47:05.386Z,11.07
2018-12-25T18:49:44.434Z,12.43
2018-12-25T18:52:14.395Z,14.00
2018-12-25T18:54:52.280Z,12.93
2018-12-25T18:57:25.131Z,14.80
2018-12-25T19:00:05.092Z,13.37
2018-12-25T19:02:50.511Z,11.73
2018-12-25T19:05:26.533Z,12.50
2018-12-25T19:07:56.889Z,11.90
2018-12-25T19:10:26.518Z,17.13
2018-12-25T19:12:55.809Z,26.07
2018-12-25T19:15:30.001Z,27.80
2018-12-25T19:18:05.352Z,30.60
2018-12-25T19:20:35.243Z,13.07
2018-12-25T19:23:06.333Z,14.73
2018-12-25T19:25:35.654Z,14.50
2018-12-25T19:28:04.918Z,12.43
2018-12-25T19:30:36.376Z,13.13
2018-12-25T19:33:06.277Z,13.40
2018-12-25T19:35:36.639Z,13.63
2018-12-25T19:38:06.366Z,18.23
2018-12-25T19:40:37.450Z,14.60
2018-12-25T19:43:09.659Z,22.93
2018-12-25T19:45:56.878Z,19.57
2018-12-25T19:48:36.858Z,17.90
2018-12-25T19:51:06.845Z,12.87
2018-12-25T19:53:49.554Z,11.50
2018-12-25T19:56:20.582Z,11.40
2018-12-25T19:59:06.964Z,11.53
2018-12-25T20:01:37.274Z,11.90
2018-12-25T20:04:39.190Z,11.20
2018-12-25T20:07:37.475Z,13.23
2018-12-25T20:10:36.464Z,53.13
2018-12-25T20:13:44.090Z,23.20
2018-12-25T20:16:59.230Z,19.07
2018-12-25T20:20:09.141Z,12.83
2018-12-25T20:23:29.383Z,13.47
2018-12-25T20:26:25.135Z,24.73
2018-12-25T20:29:27.129Z,22.70
2018-12-25T20:32:33.502Z,16.77
2018-12-25T20:35:50.054Z,14.63
2018-12-25T20:39:05.518Z,13.23
2018-12-25T20:42:14.403Z,14.63
2018-12-25T20:45:19.252Z,13.27
2018-12-25T20:48:22.198Z,13.07
2018-12-25T20:51:27.790Z,13.27
2018-12-25T20:54:26.275Z,16.50
2018-12-25T20:57:32.023Z,16.63
2018-12-25T21:00:48.090Z,15.63
2018-12-25T21:04:08.102Z,14.77
2018-12-25T21:07:30.369Z,13.53
2018-12-25T21:10:38.579Z,12.23
2018-12-25T21:13:58.999Z,13.30
2018-12-25T21:16:59.844Z,11.63
2018-12-25T21:19:52.682Z,12.37
2018-12-25T21:22:57.679Z,12.10
2018-12-25T21:26:02.280Z,12.60
2018-12-25T21:28:34.407Z,13.80
2018-12-25T21:31:05.275Z,13.27
2018-12-25T21:33:36.336Z,12.67
2018-12-25T21:36:08.024Z,13.50
2018-12-25T21:38:39.382Z,12.77
2018-12-25T21:41:12.102Z,12.70
2018-12-25T21:43:41.660Z,12.13
2018-12-25T21:46:22.774Z,12.10
2018-12-25T21:48:52.995Z,12.60
2018-12-25T21:51:23.318Z,12.47
2018-12-25T21:53:53.131Z,12.33
2018-12-25T21:56:23.825Z,12.53
2018-12-25T21:58:54.331Z,12.47
2018-12-25T22:01:23.902Z,11.77
2018-12-25T22:03:54.263Z,12.47
2018-12-25T22:06:27.160Z,13.87
2018-12-25T22:08:56.432Z,13.17
2018-12-25T22:11:26.647Z,12.87
2018-12-25T22:13:58.332Z,12.47
2018-12-25T22:16:27.966Z,14.03
2018-12-25T22:18:59.332Z,12.67
2018-12-25T22:21:28.838Z,12.83
2018-12-25T22:23:59.453Z,12.43
2018-12-25T22:26:29.065Z,13.10
2018-12-25T22:28:58.949Z,19.00
2018-12-25T22:31:28.998Z,15.90
2018-12-25T22:33:59.548Z,15.07
2018-12-25T22:36:28.895Z,12.50
2018-12-25T22:39:01.371Z,12.27
2018-12-25T22:41:34.149Z,12.23
2018-12-25T22:44:03.425Z,11.00
2018-12-25T22:46:32.680Z,17.80
2018-12-25T22:49:02.973Z,20.90
2018-12-25T22:51:35.062Z,18.87
2018-12-25T22:54:08.663Z,15.57
2018-12-25T22:56:40.904Z,11.90
2018-12-25T22:59:11.163Z,11.93
2018-12-25T23:01:40.828Z,10.80
2018-12-25T23:04:10.451Z,11.97
2018-12-25T23:06:40.261Z,12.20
2018-12-25T23:09:10.696Z,12.53
2018-12-25T23:11:41.673Z,12.63
2018-12-25T23:14:17.216Z,12.63
2018-12-25T23:16:47.831Z,13.80
2018-12-25T23:19:19.684Z,12.63
2018-12-25T23:21:48.932Z,12.23
2018-12-25T23:24:18.774Z,12.73
2018-12-25T23:26:51.667Z,12.90
2018-12-25T23:29:23.980Z,14.23
2018-12-25T23:31:56.912Z,14.10
2018-12-25T23:34:26.176Z,14.73
2018-12-25T23:36:55.959Z,14.30
2018-12-25T23:39:25.780Z,13.77
2018-12-25T23:41:56.103Z,15.40
2018-12-25T23:44:30.445Z,14.37
2018-12-25T23:46:59.667Z,13.63
2018-12-25T23:49:29.987Z,13.93
2018-12-25T23:52:04.228Z,13.73
2018-12-25T23:54:38.374Z,11.60
2018-12-25T23:57:09.637Z,11.63
2018-12-25T23:59:42.333Z,12.23
